createdAt,value
2017-12-02T00:02:08.748Z,23.90
2017-12-02T00:04:36.814Z,23.90
2017-12-02T00:07:04.981Z,23.90
2017-12-02T00:09:33.176Z,23.80
2017-12-02T00:12:01.220Z,23.80
2017-12-02T00:14:29.274Z,23.70
2017-12-02T00:16:58.330Z,23.70
2017-12-02T00:19:26.383Z,23.70
2017-12-02T00:21:54.679Z,23.70
2017-12-02T00:24:22.855Z,23.70
2017-12-02T00:26:50.931Z,23.60
2017-12-02T00:29:18.969Z,23.60
2017-12-02T00:31:47.163Z,23.70
2017-12-02T00:34:15.303Z,23.60
2017-12-02T00:36:43.399Z,23.60
2017-12-02T00:39:11.607Z,23.50
2017-12-02T00:41:39.742Z,23.50
2017-12-02T00:44:07.807Z,23.50
2017-12-02T00:46:35.951Z,23.50
2017-12-02T00:49:04.715Z,23.60
2017-12-02T00:51:32.730Z,23.60
2017-12-02T00:54:00.915Z,23.50
2017-12-02T00:56:28.955Z,23.50
2017-12-02T00:58:57.715Z,23.50
2017-12-02T01:01:25.879Z,23.50
2017-12-02T01:03:53.910Z,23.50
2017-12-02T01:06:21.968Z,23.50
2017-12-02T01:08:51.022Z,23.50
2017-12-02T01:11:19.211Z,23.50
2017-12-02T01:13:47.387Z,23.50
2017-12-02T01:16:15.707Z,23.50
2017-12-02T01:18:43.787Z,23.40
2017-12-02T01:21:11.954Z,23.50
2017-12-02T01:23:40.115Z,23.50
2017-12-02T01:26:08.913Z,23.50
2017-12-02T01:28:36.947Z,23.40
2017-12-02T01:31:05.086Z,23.50
2017-12-02T01:33:33.136Z,23.50
2017-12-02T01:36:01.142Z,23.50
2017-12-02T01:38:29.315Z,23.40
2017-12-02T01:40:57.359Z,23.40
2017-12-02T01:43:25.423Z,23.40
2017-12-02T01:45:54.338Z,23.40
2017-12-02T01:48:22.347Z,23.40
2017-12-02T01:50:50.371Z,23.30
2017-12-02T01:53:18.539Z,23.20
2017-12-02T01:55:46.723Z,23.20
2017-12-02T01:58:14.742Z,23.10
2017-12-02T02:00:42.923Z,23.10
2017-12-02T02:03:11.029Z,23.10
2017-12-02T02:05:39.824Z,23.30
2017-12-02T02:08:08.059Z,23.20
2017-12-02T02:10:36.091Z,23.20
2017-12-02T02:13:04.118Z,23.00
2017-12-02T02:15:32.279Z,23.10
2017-12-02T02:18:00.302Z,23.10
2017-12-02T02:20:28.351Z,23.00
2017-12-02T02:22:57.295Z,23.00
2017-12-02T02:25:25.430Z,23.00
2017-12-02T02:27:54.183Z,22.90
2017-12-02T02:30:22.364Z,22.90
2017-12-02T02:32:50.419Z,22.80
2017-12-02T02:35:18.481Z,22.80
2017-12-02T02:37:46.622Z,22.80
2017-12-02T02:40:14.651Z,22.70
2017-12-02T02:42:42.669Z,22.70
2017-12-02T02:45:10.802Z,22.80
2017-12-02T02:47:38.889Z,22.90
2017-12-02T02:50:07.675Z,22.70
2017-12-02T02:52:36.583Z,22.70
2017-12-02T02:55:05.570Z,22.70
2017-12-02T02:57:34.552Z,22.70
2017-12-02T03:00:02.876Z,22.70
2017-12-02T03:02:30.895Z,22.80
2017-12-02T03:04:58.923Z,22.80
2017-12-02T03:07:27.103Z,22.90
2017-12-02T03:09:55.283Z,22.90
2017-12-02T03:12:23.571Z,22.90
2017-12-02T03:14:52.004Z,23.10
2017-12-02T03:17:20.340Z,23.00
2017-12-02T03:19:48.657Z,23.20
2017-12-02T03:22:16.991Z,23.30
2017-12-02T03:24:45.227Z,23.30
2017-12-02T03:27:13.358Z,23.30
2017-12-02T03:29:41.574Z,23.30
2017-12-02T03:32:09.831Z,23.30
2017-12-02T03:34:38.876Z,23.80
2017-12-02T03:37:07.183Z,23.80
2017-12-02T03:39:35.343Z,24.50
2017-12-02T03:42:03.527Z,24.70
2017-12-02T03:44:31.903Z,25.20
2017-12-02T03:47:00.155Z,25.50
2017-12-02T03:49:28.374Z,25.70
2017-12-02T03:51:56.764Z,25.50
2017-12-02T03:54:25.097Z,25.90
2017-12-02T03:56:53.226Z,26.20
2017-12-02T03:59:22.519Z,25.40
2017-12-02T04:01:51.352Z,25.00
2017-12-02T04:04:19.599Z,25.00
2017-12-02T04:06:48.651Z,24.40
2017-12-02T04:09:16.859Z,24.40
2017-12-02T04:11:45.751Z,24.60
2017-12-02T04:14:14.912Z,24.70
2017-12-02T04:16:43.939Z,24.80
2017-12-02T04:19:12.278Z,24.80
2017-12-02T04:21:40.762Z,24.70
2017-12-02T04:24:09.070Z,24.80
2017-12-02T04:26:37.307Z,24.90
2017-12-02T04:29:05.606Z,24.90
2017-12-02T04:31:34.003Z,25.00
2017-12-02T04:34:02.155Z,25.10
2017-12-02T04:36:30.520Z,25.10
2017-12-02T04:38:58.702Z,25.00
2017-12-02T04:41:26.871Z,25.30
2017-12-02T04:43:55.300Z,25.50
2017-12-02T04:46:23.443Z,25.60
2017-12-02T04:48:51.734Z,25.90
2017-12-02T04:51:20.004Z,25.90
2017-12-02T04:53:48.115Z,25.90
2017-12-02T04:56:17.095Z,25.80
2017-12-02T04:58:45.407Z,25.80
2017-12-02T05:01:13.813Z,25.80
2017-12-02T05:03:41.871Z,25.90
2017-12-02T05:06:10.103Z,26.00
2017-12-02T05:21:36.294Z,26.50
2017-12-02T05:24:04.515Z,26.50
2017-12-02T05:26:33.411Z,26.70
2017-12-02T05:29:02.530Z,26.90
2017-12-02T05:31:30.699Z,26.90
2017-12-02T05:33:58.922Z,26.80
2017-12-02T05:36:27.207Z,26.80
2017-12-02T05:38:55.495Z,27.00
2017-12-02T05:41:23.771Z,27.20
2017-12-02T05:43:52.090Z,27.20
2017-12-02T05:46:20.295Z,27.20
2017-12-02T05:48:48.503Z,27.30
2017-12-02T05:51:16.823Z,27.40
2017-12-02T05:53:45.060Z,27.80
2017-12-02T05:56:13.376Z,27.90
2017-12-02T05:58:41.771Z,28.00
2017-12-02T06:01:10.007Z,28.10
2017-12-02T06:03:39.238Z,28.10
2017-12-02T06:06:07.615Z,28.10
2017-12-02T06:08:35.790Z,28.10
2017-12-02T06:11:04.103Z,28.10
2017-12-02T06:13:32.488Z,28.20
2017-12-02T06:16:00.735Z,28.40
2017-12-02T06:18:29.191Z,28.50
2017-12-02T06:20:58.439Z,28.70
2017-12-02T06:23:26.712Z,28.70
2017-12-02T06:25:54.839Z,28.80
2017-12-02T06:28:23.924Z,28.90
2017-12-02T06:30:52.063Z,28.90
2017-12-02T06:33:20.262Z,28.80
2017-12-02T06:35:48.648Z,29.00
2017-12-02T06:38:17.011Z,29.00
2017-12-02T06:40:45.184Z,29.30
2017-12-02T06:43:13.622Z,29.30
2017-12-02T06:45:41.792Z,29.30
2017-12-02T06:48:10.698Z,29.50
2017-12-02T06:50:39.128Z,29.50
2017-12-02T06:53:07.274Z,29.40
2017-12-02T06:55:35.407Z,29.60
2017-12-02T06:58:04.591Z,29.60
2017-12-02T07:00:32.899Z,29.60
2017-12-02T07:03:01.191Z,29.80
2017-12-02T07:05:29.807Z,29.60
2017-12-02T07:07:58.123Z,29.70
2017-12-02T07:10:27.137Z,30.00
2017-12-02T07:12:55.576Z,30.00
2017-12-02T07:15:23.935Z,30.00
2017-12-02T07:17:52.254Z,30.10
2017-12-02T07:20:21.567Z,30.40
2017-12-02T07:22:50.679Z,30.30
2017-12-02T07:25:19.234Z,30.30
2017-12-02T07:27:48.535Z,30.40
2017-12-02T07:30:17.610Z,30.40
2017-12-02T07:32:45.824Z,30.30
2017-12-02T07:35:14.899Z,30.50
2017-12-02T07:37:43.011Z,30.50
2017-12-02T07:40:11.256Z,30.60
2017-12-02T07:42:40.260Z,30.40
2017-12-02T07:45:09.292Z,30.20
2017-12-02T07:47:37.660Z,30.20
2017-12-02T07:50:06.103Z,30.30
2017-12-02T07:52:34.358Z,30.20
2017-12-02T07:55:02.548Z,30.20
2017-12-02T07:57:30.784Z,30.40
2017-12-02T07:59:59.027Z,30.40
2017-12-02T08:02:27.911Z,30.50
2017-12-02T08:04:56.855Z,30.60
2017-12-02T08:07:25.183Z,30.60
2017-12-02T08:09:54.139Z,30.90
2017-12-02T08:12:22.379Z,30.80
2017-12-02T08:14:50.672Z,30.80
2017-12-02T08:17:18.802Z,30.70
2017-12-02T08:19:47.859Z,30.80
2017-12-02T08:22:16.051Z,30.80
2017-12-02T08:24:44.211Z,30.60
2017-12-02T08:27:12.483Z,30.60
2017-12-02T08:29:40.650Z,30.60
2017-12-02T08:32:08.843Z,30.50
2017-12-02T08:34:37.176Z,30.40
2017-12-02T08:37:05.394Z,30.50
2017-12-02T08:39:33.576Z,30.50
2017-12-02T08:42:01.827Z,30.50
2017-12-02T08:44:29.899Z,30.60
2017-12-02T08:46:58.022Z,30.80
2017-12-02T08:49:26.359Z,30.90
2017-12-02T08:51:54.531Z,30.80
2017-12-02T08:54:22.702Z,31.00
2017-12-02T08:56:51.034Z,31.00
2017-12-02T08:59:19.254Z,31.00
2017-12-02T09:01:47.459Z,30.90
2017-12-02T09:04:15.674Z,30.80
2017-12-02T09:06:44.521Z,30.80
2017-12-02T09:09:12.775Z,30.80
2017-12-02T09:11:41.103Z,30.80
2017-12-02T09:14:09.223Z,30.70
2017-12-02T09:16:37.359Z,30.70
2017-12-02T09:19:05.692Z,30.80
2017-12-02T09:21:33.887Z,30.80
2017-12-02T09:24:02.039Z,30.70
2017-12-02T09:26:30.324Z,30.70
2017-12-02T09:28:59.008Z,30.70
2017-12-02T09:31:27.239Z,30.40
2017-12-02T09:33:56.347Z,30.30
2017-12-02T09:36:25.205Z,30.30
2017-12-02T09:38:53.343Z,30.30
2017-12-02T09:41:21.575Z,30.20
2017-12-02T09:43:50.447Z,30.40
2017-12-02T09:46:18.532Z,30.40
2017-12-02T09:48:46.839Z,30.50
2017-12-02T09:51:14.879Z,30.20
2017-12-02T09:53:43.132Z,30.20
2017-12-02T09:56:11.471Z,30.20
2017-12-02T09:58:39.599Z,30.40
2017-12-02T10:01:07.715Z,30.20
2017-12-02T10:03:35.867Z,30.20
2017-12-02T10:06:04.887Z,30.10
2017-12-02T10:08:33.047Z,30.10
2017-12-02T10:11:02.314Z,30.10
2017-12-02T10:13:30.571Z,30.10
2017-12-02T10:15:58.707Z,30.10
2017-12-02T10:18:27.767Z,29.90
2017-12-02T10:20:55.947Z,29.90
2017-12-02T10:23:24.174Z,30.00
2017-12-02T10:25:52.392Z,29.90
2017-12-02T10:28:20.710Z,29.90
2017-12-02T10:30:49.691Z,29.60
2017-12-02T10:33:18.747Z,29.50
2017-12-02T10:35:47.008Z,29.50
2017-12-02T10:38:15.259Z,29.50
2017-12-02T10:40:43.507Z,29.60
2017-12-02T10:43:11.726Z,29.50
2017-12-02T10:45:39.917Z,29.60
2017-12-02T10:48:08.383Z,29.60
2017-12-02T10:50:36.635Z,29.50
2017-12-02T10:53:05.546Z,29.50
2017-12-02T10:55:33.924Z,29.40
2017-12-02T10:58:02.299Z,29.40
2017-12-02T11:00:30.395Z,29.30
2017-12-02T11:02:58.724Z,29.30
2017-12-02T11:05:26.754Z,29.30
2017-12-02T11:07:54.858Z,29.40
2017-12-02T11:10:23.043Z,29.40
2017-12-02T11:12:51.249Z,29.40
2017-12-02T11:15:19.302Z,29.30
2017-12-02T11:17:48.211Z,29.20
2017-12-02T11:20:16.979Z,29.10
2017-12-02T11:22:45.791Z,29.10
2017-12-02T11:25:14.675Z,29.10
2017-12-02T11:27:43.459Z,29.10
2017-12-02T11:30:12.431Z,29.10
2017-12-02T11:32:40.611Z,29.00
2017-12-02T11:35:08.816Z,29.00
2017-12-02T11:37:37.615Z,29.00
2017-12-02T11:40:06.039Z,29.00
2017-12-02T11:42:34.070Z,29.00
2017-12-02T11:45:02.448Z,29.00
2017-12-02T11:47:30.619Z,29.00
2017-12-02T11:49:58.663Z,28.90
2017-12-02T11:52:26.728Z,28.90
2017-12-02T11:54:54.891Z,28.80
2017-12-02T11:57:22.955Z,28.90
2017-12-02T11:59:50.996Z,29.00
2017-12-02T12:02:19.179Z,29.10
2017-12-02T12:04:47.278Z,29.10
2017-12-02T12:07:15.356Z,29.00
2017-12-02T12:09:43.547Z,29.10
2017-12-02T12:12:11.587Z,29.10
2017-12-02T12:14:39.804Z,29.00
2017-12-02T12:17:08.721Z,28.90
2017-12-02T12:19:36.762Z,28.90
2017-12-02T12:22:04.855Z,28.90
2017-12-02T12:24:33.739Z,28.90
2017-12-02T12:27:02.507Z,28.80
2017-12-02T12:29:41.737Z,28.80
2017-12-02T12:32:09.924Z,28.80
2017-12-02T12:34:37.984Z,28.70
2017-12-02T12:37:06.668Z,28.70
2017-12-02T12:39:35.399Z,28.70
2017-12-02T12:42:04.686Z,28.70
2017-12-02T12:44:33.567Z,28.60
2017-12-02T12:47:01.667Z,28.60
2017-12-02T12:49:30.478Z,28.60
2017-12-02T12:51:58.758Z,28.60
2017-12-02T12:54:26.959Z,28.60
2017-12-02T12:56:55.164Z,28.50
2017-12-02T12:59:23.496Z,28.40
2017-12-02T13:01:51.721Z,28.50
2017-12-02T13:04:19.889Z,28.50
2017-12-02T13:06:48.039Z,28.40
2017-12-02T13:09:16.091Z,28.30
2017-12-02T13:11:44.143Z,28.20
2017-12-02T13:14:12.336Z,28.10
2017-12-02T13:16:40.576Z,28.10
2017-12-02T13:19:09.383Z,28.00
2017-12-02T13:21:38.300Z,28.00
2017-12-02T13:24:06.356Z,28.00
2017-12-02T13:26:34.439Z,28.00
2017-12-02T13:29:02.656Z,28.00
2017-12-02T13:31:30.698Z,27.90
2017-12-02T13:33:58.759Z,27.80
2017-12-02T13:36:26.915Z,27.90
2017-12-02T13:38:55.786Z,27.70
2017-12-02T13:41:24.079Z,27.70
2017-12-02T13:43:52.975Z,27.70
2017-12-02T13:46:21.748Z,27.70
2017-12-02T13:48:50.526Z,27.60
2017-12-02T13:51:18.711Z,27.60
2017-12-02T13:53:46.803Z,27.60
2017-12-02T13:56:15.606Z,27.50
2017-12-02T13:58:43.887Z,27.50
2017-12-02T14:01:11.919Z,27.40
2017-12-02T14:03:39.957Z,27.50
2017-12-02T14:06:08.171Z,27.50
2017-12-02T14:08:36.224Z,27.40
2017-12-02T14:11:04.399Z,27.40
2017-12-02T14:13:32.589Z,27.40
2017-12-02T14:16:00.627Z,27.40
2017-12-02T14:18:28.820Z,27.40
2017-12-02T14:20:56.999Z,27.40
2017-12-02T14:23:25.038Z,27.30
2017-12-02T14:25:53.046Z,27.30
2017-12-02T14:28:21.232Z,27.30
2017-12-02T14:30:49.292Z,27.30
2017-12-02T14:33:17.360Z,27.30
2017-12-02T14:35:45.944Z,27.20
2017-12-02T14:38:13.968Z,27.30
2017-12-02T14:40:41.987Z,27.20
2017-12-02T14:43:10.163Z,27.20
2017-12-02T14:45:38.227Z,27.20
2017-12-02T14:48:06.242Z,27.10
2017-12-02T14:50:35.135Z,27.10
2017-12-02T14:53:03.944Z,27.10
2017-12-02T14:55:32.042Z,27.00
2017-12-02T14:58:00.186Z,27.10
2017-12-02T15:00:28.223Z,27.10
2017-12-02T15:02:56.344Z,27.10
2017-12-02T15:05:24.558Z,27.10
2017-12-02T15:07:52.574Z,27.10
2017-12-02T15:10:21.359Z,27.10
2017-12-02T15:12:50.263Z,27.10
2017-12-02T15:15:18.488Z,27.10
2017-12-02T15:17:46.599Z,27.10
2017-12-02T15:20:15.783Z,27.00
2017-12-02T15:22:43.827Z,27.00
2017-12-02T15:25:11.860Z,27.10
2017-12-02T15:27:40.020Z,27.10
2017-12-02T15:30:08.807Z,27.00
2017-12-02T15:32:37.600Z,27.00
2017-12-02T15:35:06.503Z,27.00
2017-12-02T15:37:34.535Z,27.00
2017-12-02T15:40:02.619Z,26.90
2017-12-02T15:42:30.767Z,26.90
2017-12-02T15:44:58.811Z,26.90
2017-12-02T15:47:26.939Z,26.90
2017-12-02T15:49:55.098Z,26.90
2017-12-02T15:52:23.233Z,26.90
2017-12-02T15:54:51.475Z,26.90
2017-12-02T15:57:20.456Z,26.90
2017-12-02T15:59:48.533Z,26.80
2017-12-02T16:02:17.148Z,26.90
2017-12-02T16:04:45.334Z,26.90
2017-12-02T16:07:13.412Z,26.90
2017-12-02T16:09:41.487Z,26.90
2017-12-02T16:12:09.667Z,26.90
2017-12-02T16:14:37.781Z,26.80
2017-12-02T16:17:05.958Z,26.90
2017-12-02T16:19:34.167Z,26.80
2017-12-02T16:22:03.127Z,26.70
2017-12-02T16:24:31.220Z,26.70
2017-12-02T16:27:00.123Z,26.80
2017-12-02T16:29:28.952Z,26.80
2017-12-02T16:31:57.003Z,26.70
2017-12-02T16:34:25.202Z,26.70
2017-12-02T16:36:53.277Z,26.70
2017-12-02T16:39:21.388Z,26.70
2017-12-02T16:41:50.069Z,26.70
2017-12-02T16:44:18.131Z,26.70
2017-12-02T16:46:46.366Z,26.70
2017-12-02T16:49:18.941Z,26.60
2017-12-02T16:51:47.929Z,26.60
2017-12-02T16:54:15.981Z,26.60
2017-12-02T16:56:44.931Z,26.50
2017-12-02T16:59:13.095Z,26.50
2017-12-02T17:01:41.364Z,26.50
2017-12-02T17:04:10.799Z,26.50
2017-12-02T17:06:39.022Z,26.50
2017-12-02T17:09:07.258Z,26.50
2017-12-02T17:11:35.319Z,26.50
2017-12-02T17:14:03.400Z,26.50
2017-12-02T17:16:31.644Z,26.50
2017-12-02T17:18:59.778Z,26.50
2017-12-02T17:21:28.646Z,26.50
2017-12-02T17:23:56.983Z,26.40
2017-12-02T17:26:25.091Z,26.50
2017-12-02T17:28:53.165Z,26.50
2017-12-02T17:31:21.416Z,26.50
2017-12-02T17:33:49.516Z,26.50
2017-12-02T17:36:17.632Z,26.40
2017-12-02T17:38:46.588Z,26.40
2017-12-02T17:41:14.820Z,26.40
2017-12-02T17:43:42.921Z,26.40
2017-12-02T17:46:11.396Z,26.40
2017-12-02T17:48:39.511Z,26.40
2017-12-02T17:51:07.619Z,26.30
2017-12-02T17:53:35.889Z,26.30
2017-12-02T17:56:03.977Z,26.30
2017-12-02T17:58:33.065Z,26.30
2017-12-02T18:01:01.228Z,26.30
2017-12-02T18:16:32.742Z,26.70
2017-12-02T18:19:00.799Z,26.50
2017-12-02T18:21:28.844Z,26.50
2017-12-02T18:23:57.151Z,26.40
2017-12-02T18:26:25.299Z,26.30
2017-12-02T18:28:53.411Z,26.30
2017-12-02T18:31:21.714Z,26.30
2017-12-02T18:33:49.938Z,26.30
2017-12-02T18:36:17.999Z,26.30
2017-12-02T18:38:46.142Z,26.20
2017-12-02T18:41:14.910Z,26.20
2017-12-02T18:43:42.972Z,26.20
2017-12-02T18:46:11.315Z,26.20
2017-12-02T18:48:39.351Z,26.20
2017-12-02T18:51:08.283Z,26.20
2017-12-02T18:53:36.595Z,26.20
2017-12-02T18:56:04.747Z,26.20
2017-12-02T18:58:32.809Z,26.20
2017-12-02T19:01:00.995Z,26.20
2017-12-02T19:03:29.055Z,26.20
2017-12-02T19:05:57.070Z,26.10
2017-12-02T19:08:25.271Z,26.10
2017-12-02T19:10:54.035Z,26.10
2017-12-02T19:13:22.086Z,26.10
2017-12-02T19:15:50.295Z,26.00
2017-12-02T19:18:18.342Z,26.00
2017-12-02T19:20:46.407Z,26.00
2017-12-02T19:23:14.578Z,26.00
2017-12-02T19:25:42.740Z,26.00
2017-12-02T19:28:10.798Z,26.00
2017-12-02T19:30:38.939Z,25.90
2017-12-02T19:33:07.723Z,25.90
2017-12-02T19:35:35.776Z,25.80
2017-12-02T19:38:03.927Z,25.80
2017-12-02T19:40:31.988Z,25.80
2017-12-02T19:43:00.015Z,25.70
2017-12-02T19:45:28.200Z,25.80
2017-12-02T19:47:56.983Z,25.70
2017-12-02T19:50:25.164Z,25.70
2017-12-02T19:52:54.096Z,25.70
2017-12-02T19:55:22.147Z,25.70
2017-12-02T19:57:50.952Z,25.60
2017-12-02T20:00:19.196Z,25.60
2017-12-02T20:02:48.128Z,25.60
2017-12-02T20:05:16.372Z,25.60
2017-12-02T20:07:45.249Z,25.60
2017-12-02T20:10:14.220Z,25.50
2017-12-02T20:12:42.436Z,25.50
2017-12-02T20:15:11.315Z,25.40
2017-12-02T20:17:39.440Z,25.40
2017-12-02T20:20:07.624Z,25.30
2017-12-02T20:22:35.929Z,25.30
2017-12-02T20:25:04.091Z,25.30
2017-12-02T20:27:32.239Z,25.30
2017-12-02T20:30:00.411Z,25.20
2017-12-02T20:32:28.444Z,25.20
2017-12-02T20:34:57.259Z,25.10
2017-12-02T20:37:25.427Z,25.10
2017-12-02T20:39:54.183Z,25.10
2017-12-02T20:42:22.231Z,25.00
2017-12-02T20:44:50.387Z,25.00
2017-12-02T20:47:18.435Z,25.00
2017-12-02T20:49:47.239Z,24.90
2017-12-02T20:52:15.400Z,24.90
2017-12-02T20:54:44.199Z,24.90
2017-12-02T20:57:12.235Z,24.90
2017-12-02T20:59:40.399Z,25.00
2017-12-02T21:02:08.415Z,24.90
2017-12-02T21:04:36.455Z,24.80
2017-12-02T21:07:04.622Z,24.80
2017-12-02T21:09:32.670Z,24.80
2017-12-02T21:12:00.678Z,24.80
2017-12-02T21:14:28.847Z,24.90
2017-12-02T21:16:56.891Z,24.80
2017-12-02T21:19:24.911Z,24.80
2017-12-02T21:21:53.827Z,24.70
2017-12-02T21:24:21.899Z,24.70
2017-12-02T21:26:50.879Z,24.70
2017-12-02T21:29:19.906Z,24.60
2017-12-02T21:31:47.963Z,24.60
2017-12-02T21:34:15.999Z,24.60
2017-12-02T21:36:44.912Z,24.60
2017-12-02T21:39:13.723Z,24.50
2017-12-02T21:41:41.789Z,24.50
2017-12-02T21:44:10.107Z,24.60
2017-12-02T21:46:38.235Z,24.50
2017-12-02T21:49:06.298Z,24.50
2017-12-02T21:51:35.186Z,24.50
2017-12-02T21:54:04.086Z,24.50
2017-12-02T21:56:32.899Z,24.40
2017-12-02T21:59:01.050Z,24.50
2017-12-02T22:01:29.856Z,24.40
2017-12-02T22:03:57.874Z,24.40
2017-12-02T22:06:26.074Z,24.40
2017-12-02T22:08:54.858Z,24.40
2017-12-02T22:11:23.631Z,24.30
2017-12-02T22:13:51.915Z,24.40
2017-12-02T22:16:19.991Z,24.40
2017-12-02T22:18:48.367Z,24.40
2017-12-02T22:21:16.502Z,24.40
2017-12-02T22:23:44.527Z,24.30
2017-12-02T22:26:13.370Z,24.30
2017-12-02T22:28:41.561Z,24.30
2017-12-02T22:31:09.939Z,24.30
2017-12-02T22:33:38.030Z,24.30
2017-12-02T22:36:06.227Z,24.30
2017-12-02T22:38:35.019Z,24.40
2017-12-02T22:41:03.872Z,24.30
2017-12-02T22:43:32.300Z,24.30
2017-12-02T22:46:01.276Z,24.30
2017-12-02T22:48:30.051Z,24.30
2017-12-02T22:50:58.248Z,24.30
2017-12-02T22:53:27.062Z,24.30
2017-12-02T22:55:55.211Z,24.30
2017-12-02T22:58:24.150Z,24.20
2017-12-02T23:00:52.211Z,24.20
2017-12-02T23:03:20.296Z,24.20
2017-12-02T23:05:48.471Z,24.10
2017-12-02T23:08:16.560Z,24.10
2017-12-02T23:10:44.607Z,24.10
2017-12-02T23:13:12.870Z,24.00
2017-12-02T23:15:40.911Z,24.10
2017-12-02T23:18:09.703Z,24.00
2017-12-02T23:20:37.850Z,24.00
2017-12-02T23:23:05.931Z,24.10
2017-12-02T23:25:34.107Z,24.10
2017-12-02T23:28:02.245Z,24.10
2017-12-02T23:30:30.307Z,24.00
2017-12-02T23:32:58.450Z,24.10
2017-12-02T23:35:27.324Z,24.00
2017-12-02T23:37:55.355Z,24.00
2017-12-02T23:40:23.366Z,24.00
2017-12-02T23:42:51.564Z,24.00
2017-12-02T23:45:20.371Z,24.00
2017-12-02T23:47:49.118Z,23.90
2017-12-02T23:50:17.323Z,23.90
2017-12-02T23:52:46.115Z,23.90
2017-12-02T23:55:14.927Z,24.00
2017-12-02T23:57:43.155Z,24.00
